sensor_id;sensor_type;location;lat;lon;timestamp;P1;durP1;ratioP1;P2;durP2;ratioP2
3036;SDS011;1528;52.550;13.408;2022-10-30T00:02:15;37.87;;;35.13;;
3036;SDS011;1528;52.550;13.408;2022-10-30T00:05:00;32.27;;;30.00;;
3036;SDS011;1528;52.550;13.408;2022-10-30T00:07:46;35.97;;;33.33;;
3036;SDS011;1528;52.550;13.408;2022-10-30T00:10:33;31.37;;;29.07;;
3036;SDS011;1528;52.550;13.408;2022-10-30T00:13:19;34.23;;;31.43;;
3036;SDS011;1528;52.550;13.408;2022-10-30T00:16:06;33.27;;;30.63;;
3036;SDS011;1528;52.550;13.408;2022-10-30T00:18:53;36.13;;;33.37;;
3036;SDS011;1528;52.550;13.408;2022-10-30T00:21:38;32.87;;;30.63;;
3036;SDS011;1528;52.550;13.408;2022-10-30T00:24:24;32.87;;;30.37;;
3036;SDS011;1528;52.550;13.408;2022-10-30T00:27:11;32.37;;;29.70;;
3036;SDS011;1528;52.550;13.408;2022-10-30T00:29:56;35.07;;;32.30;;
3036;SDS011;1528;52.550;13.408;2022-10-30T00:32:42;35.03;;;32.57;;
3036;SDS011;1528;52.550;13.408;2022-10-30T00:35:27;37.97;;;34.90;;
3036;SDS011;1528;52.550;13.408;2022-10-30T00:38:13;37.00;;;34.20;;
3036;SDS011;1528;52.550;13.408;2022-10-30T00:40:58;35.40;;;32.70;;
3036;SDS011;1528;52.550;13.408;2022-10-30T00:43:45;32.63;;;30.33;;
3036;SDS011;1528;52.550;13.408;2022-10-30T00:46:32;35.60;;;32.60;;
3036;SDS011;1528;52.550;13.408;2022-10-30T00:49:20;35.07;;;32.27;;
3036;SDS011;1528;52.550;13.408;2022-10-30T00:52:06;34.97;;;32.37;;
3036;SDS011;1528;52.550;13.408;2022-10-30T00:54:54;31.50;;;29.13;;
3036;SDS011;1528;52.550;13.408;2022-10-30T00:57:41;32.83;;;30.63;;
3036;SDS011;1528;52.550;13.408;2022-10-30T01:00:29;31.87;;;29.57;;
3036;SDS011;1528;52.550;13.408;2022-10-30T01:03:15;33.93;;;30.63;;
3036;SDS011;1528;52.550;13.408;2022-10-30T01:06:03;34.13;;;31.30;;
3036;SDS011;1528;52.550;13.408;2022-10-30T01:08:52;32.20;;;29.80;;
3036;SDS011;1528;52.550;13.408;2022-10-30T01:11:38;33.30;;;30.80;;
3036;SDS011;1528;52.550;13.408;2022-10-30T01:14:24;36.10;;;33.70;;
3036;SDS011;1528;52.550;13.408;2022-10-30T01:17:19;40.10;;;37.30;;
3036;SDS011;1528;52.550;13.408;2022-10-30T01:20:26;32.97;;;30.57;;
3036;SDS011;1528;52.550;13.408;2022-10-30T01:23:30;36.07;;;33.27;;
3036;SDS011;1528;52.550;13.408;2022-10-30T01:26:25;33.80;;;31.20;;
3036;SDS011;1528;52.550;13.408;2022-10-30T01:29:26;34.70;;;31.90;;
3036;SDS011;1528;52.550;13.408;2022-10-30T01:32:25;38.73;;;35.50;;
3036;SDS011;1528;52.550;13.408;2022-10-30T01:35:26;33.67;;;30.73;;
3036;SDS011;1528;52.550;13.408;2022-10-30T01:38:16;35.60;;;32.80;;
3036;SDS011;1528;52.550;13.408;2022-10-30T01:41:06;34.10;;;31.47;;
3036;SDS011;1528;52.550;13.408;2022-10-30T01:43:53;36.30;;;33.20;;
3036;SDS011;1528;52.550;13.408;2022-10-30T01:46:44;36.57;;;33.87;;
3036;SDS011;1528;52.550;13.408;2022-10-30T01:49:55;34.50;;;32.00;;
3036;SDS011;1528;52.550;13.408;2022-10-30T01:52:54;36.93;;;34.20;;
3036;SDS011;1528;52.550;13.408;2022-10-30T01:55:47;37.33;;;34.57;;
3036;SDS011;1528;52.550;13.408;2022-10-30T01:58:40;34.20;;;31.53;;
3036;SDS011;1528;52.550;13.408;2022-10-30T02:01:29;32.53;;;30.03;;
3036;SDS011;1528;52.550;13.408;2022-10-30T02:04:17;32.33;;;29.77;;
3036;SDS011;1528;52.550;13.408;2022-10-30T02:07:04;36.43;;;33.53;;
3036;SDS011;1528;52.550;13.408;2022-10-30T02:09:50;31.77;;;29.27;;
3036;SDS011;1528;52.550;13.408;2022-10-30T02:12:36;35.23;;;32.27;;
3036;SDS011;1528;52.550;13.408;2022-10-30T02:15:22;32.17;;;29.40;;
3036;SDS011;1528;52.550;13.408;2022-10-30T02:18:08;32.23;;;29.73;;
3036;SDS011;1528;52.550;13.408;2022-10-30T02:20:55;31.23;;;28.83;;
3036;SDS011;1528;52.550;13.408;2022-10-30T02:23:40;32.00;;;29.70;;
3036;SDS011;1528;52.550;13.408;2022-10-30T02:26:26;31.77;;;29.27;;
3036;SDS011;1528;52.550;13.408;2022-10-30T02:29:11;34.63;;;32.17;;
3036;SDS011;1528;52.550;13.408;2022-10-30T02:31:57;34.73;;;31.93;;
3036;SDS011;1528;52.550;13.408;2022-10-30T02:34:43;33.20;;;30.83;;
3036;SDS011;1528;52.550;13.408;2022-10-30T02:37:29;31.83;;;29.10;;
3036;SDS011;1528;52.550;13.408;2022-10-30T02:40:18;30.73;;;28.33;;
3036;SDS011;1528;52.550;13.408;2022-10-30T02:43:03;33.67;;;30.83;;
3036;SDS011;1528;52.550;13.408;2022-10-30T02:45:49;32.03;;;29.30;;
3036;SDS011;1528;52.550;13.408;2022-10-30T02:48:35;36.33;;;33.33;;
3036;SDS011;1528;52.550;13.408;2022-10-30T02:53:56;32.37;;;29.97;;
3036;SDS011;1528;52.550;13.408;2022-10-30T02:56:41;30.80;;;28.50;;
3036;SDS011;1528;52.550;13.408;2022-10-30T02:59:27;30.80;;;28.17;;
3036;SDS011;1528;52.550;13.408;2022-10-30T03:02:13;31.97;;;29.33;;
3036;SDS011;1528;52.550;13.408;2022-10-30T03:04:59;30.60;;;28.40;;
3036;SDS011;1528;52.550;13.408;2022-10-30T03:07:44;31.50;;;29.23;;
3036;SDS011;1528;52.550;13.408;2022-10-30T03:10:32;32.87;;;30.27;;
3036;SDS011;1528;52.550;13.408;2022-10-30T03:13:17;31.97;;;29.77;;
3036;SDS011;1528;52.550;13.408;2022-10-30T03:16:04;32.00;;;29.60;;
3036;SDS011;1528;52.550;13.408;2022-10-30T03:18:51;30.53;;;28.10;;
3036;SDS011;1528;52.550;13.408;2022-10-30T03:21:37;29.40;;;26.37;;
3036;SDS011;1528;52.550;13.408;2022-10-30T03:24:23;30.63;;;28.47;;
3036;SDS011;1528;52.550;13.408;2022-10-30T03:27:09;29.23;;;26.97;;
3036;SDS011;1528;52.550;13.408;2022-10-30T03:29:55;28.50;;;26.30;;
3036;SDS011;1528;52.550;13.408;2022-10-30T03:32:41;32.83;;;29.97;;
3036;SDS011;1528;52.550;13.408;2022-10-30T03:35:26;31.10;;;28.90;;
3036;SDS011;1528;52.550;13.408;2022-10-30T03:38:12;33.83;;;31.53;;
3036;SDS011;1528;52.550;13.408;2022-10-30T03:40:57;31.60;;;29.20;;
3036;SDS011;1528;52.550;13.408;2022-10-30T03:43:44;31.40;;;28.87;;
3036;SDS011;1528;52.550;13.408;2022-10-30T03:46:30;32.43;;;29.83;;
3036;SDS011;1528;52.550;13.408;2022-10-30T03:49:15;31.53;;;29.10;;
3036;SDS011;1528;52.550;13.408;2022-10-30T03:52:01;28.93;;;26.80;;
3036;SDS011;1528;52.550;13.408;2022-10-30T03:54:46;27.20;;;24.63;;
3036;SDS011;1528;52.550;13.408;2022-10-30T03:57:34;29.60;;;27.33;;
3036;SDS011;1528;52.550;13.408;2022-10-30T04:00:21;29.23;;;27.00;;
3036;SDS011;1528;52.550;13.408;2022-10-30T04:03:07;28.63;;;25.97;;
3036;SDS011;1528;52.550;13.408;2022-10-30T04:05:54;30.30;;;28.03;;
3036;SDS011;1528;52.550;13.408;2022-10-30T04:08:39;29.83;;;27.30;;
3036;SDS011;1528;52.550;13.408;2022-10-30T04:11:25;30.53;;;28.20;;
3036;SDS011;1528;52.550;13.408;2022-10-30T04:14:10;28.97;;;26.87;;
3036;SDS011;1528;52.550;13.408;2022-10-30T04:16:57;30.40;;;28.07;;
3036;SDS011;1528;52.550;13.408;2022-10-30T04:19:43;29.57;;;27.30;;
3036;SDS011;1528;52.550;13.408;2022-10-30T04:22:28;28.17;;;25.97;;
3036;SDS011;1528;52.550;13.408;2022-10-30T04:25:14;29.73;;;26.97;;
3036;SDS011;1528;52.550;13.408;2022-10-30T04:27:59;28.77;;;26.40;;
3036;SDS011;1528;52.550;13.408;2022-10-30T04:30:45;29.03;;;26.83;;
3036;SDS011;1528;52.550;13.408;2022-10-30T04:33:32;29.70;;;27.70;;
3036;SDS011;1528;52.550;13.408;2022-10-30T04:36:17;31.30;;;28.80;;
3036;SDS011;1528;52.550;13.408;2022-10-30T04:39:04;29.20;;;27.07;;
3036;SDS011;1528;52.550;13.408;2022-10-30T04:41:49;28.13;;;25.83;;
3036;SDS011;1528;52.550;13.408;2022-10-30T04:44:35;28.47;;;26.17;;
3036;SDS011;1528;52.550;13.408;2022-10-30T04:47:20;27.00;;;25.00;;
3036;SDS011;1528;52.550;13.408;2022-10-30T04:50:08;26.50;;;24.40;;
3036;SDS011;1528;52.550;13.408;2022-10-30T04:52:57;27.90;;;25.80;;
3036;SDS011;1528;52.550;13.408;2022-10-30T04:55:43;27.60;;;25.47;;
3036;SDS011;1528;52.550;13.408;2022-10-30T04:58:29;28.73;;;26.23;;
3036;SDS011;1528;52.550;13.408;2022-10-30T05:01:14;26.47;;;24.10;;
3036;SDS011;1528;52.550;13.408;2022-10-30T05:03:59;26.03;;;23.93;;
3036;SDS011;1528;52.550;13.408;2022-10-30T05:06:46;26.60;;;24.33;;
3036;SDS011;1528;52.550;13.408;2022-10-30T05:09:32;27.10;;;25.00;;
3036;SDS011;1528;52.550;13.408;2022-10-30T05:12:17;25.77;;;23.50;;
3036;SDS011;1528;52.550;13.408;2022-10-30T05:15:03;26.70;;;24.50;;
3036;SDS011;1528;52.550;13.408;2022-10-30T05:17:50;24.67;;;22.93;;
3036;SDS011;1528;52.550;13.408;2022-10-30T05:20:36;27.37;;;25.03;;
3036;SDS011;1528;52.550;13.408;2022-10-30T05:23:23;26.93;;;24.83;;
3036;SDS011;1528;52.550;13.408;2022-10-30T05:26:08;26.07;;;24.00;;
3036;SDS011;1528;52.550;13.408;2022-10-30T05:28:54;26.10;;;24.13;;
3036;SDS011;1528;52.550;13.408;2022-10-30T05:31:39;26.67;;;24.67;;
3036;SDS011;1528;52.550;13.408;2022-10-30T05:34:25;27.23;;;25.00;;
3036;SDS011;1528;52.550;13.408;2022-10-30T05:37:11;27.43;;;25.43;;
3036;SDS011;1528;52.550;13.408;2022-10-30T05:39:57;24.57;;;22.23;;
3036;SDS011;1528;52.550;13.408;2022-10-30T05:42:43;24.13;;;22.27;;
3036;SDS011;1528;52.550;13.408;2022-10-30T05:45:29;24.03;;;22.20;;
3036;SDS011;1528;52.550;13.408;2022-10-30T05:48:15;23.30;;;21.60;;
3036;SDS011;1528;52.550;13.408;2022-10-30T05:51:00;23.63;;;21.97;;
3036;SDS011;1528;52.550;13.408;2022-10-30T05:53:47;24.30;;;22.30;;
3036;SDS011;1528;52.550;13.408;2022-10-30T05:56:34;22.50;;;20.90;;
3036;SDS011;1528;52.550;13.408;2022-10-30T05:59:19;25.47;;;23.27;;
3036;SDS011;1528;52.550;13.408;2022-10-30T06:02:05;26.17;;;23.90;;
3036;SDS011;1528;52.550;13.408;2022-10-30T06:04:50;23.77;;;22.10;;
3036;SDS011;1528;52.550;13.408;2022-10-30T06:07:36;24.70;;;22.70;;
3036;SDS011;1528;52.550;13.408;2022-10-30T06:10:21;23.53;;;21.33;;
3036;SDS011;1528;52.550;13.408;2022-10-30T06:13:09;24.03;;;22.23;;
3036;SDS011;1528;52.550;13.408;2022-10-30T06:15:55;24.30;;;22.60;;
3036;SDS011;1528;52.550;13.408;2022-10-30T06:18:40;24.70;;;22.70;;
3036;SDS011;1528;52.550;13.408;2022-10-30T06:21:25;24.47;;;22.47;;
3036;SDS011;1528;52.550;13.408;2022-10-30T06:24:11;25.20;;;23.23;;
3036;SDS011;1528;52.550;13.408;2022-10-30T06:26:57;26.07;;;24.07;;
3036;SDS011;1528;52.550;13.408;2022-10-30T06:29:44;21.60;;;19.70;;
3036;SDS011;1528;52.550;13.408;2022-10-30T06:32:29;23.50;;;21.63;;
3036;SDS011;1528;52.550;13.408;2022-10-30T06:35:15;23.93;;;22.00;;
3036;SDS011;1528;52.550;13.408;2022-10-30T06:38:00;23.53;;;21.67;;
3036;SDS011;1528;52.550;13.408;2022-10-30T06:40:47;22.37;;;20.80;;
3036;SDS011;1528;52.550;13.408;2022-10-30T06:43:33;23.33;;;21.73;;
3036;SDS011;1528;52.550;13.408;2022-10-30T06:46:20;24.97;;;23.13;;
3036;SDS011;1528;52.550;13.408;2022-10-30T06:49:05;23.87;;;22.07;;
3036;SDS011;1528;52.550;13.408;2022-10-30T06:51:51;25.30;;;23.47;;
3036;SDS011;1528;52.550;13.408;2022-10-30T06:54:36;23.23;;;21.30;;
3036;SDS011;1528;52.550;13.408;2022-10-30T06:57:22;27.10;;;25.03;;
3036;SDS011;1528;52.550;13.408;2022-10-30T07:00:08;32.27;;;29.80;;
3036;SDS011;1528;52.550;13.408;2022-10-30T07:02:57;28.00;;;26.00;;
3036;SDS011;1528;52.550;13.408;2022-10-30T07:05:43;27.60;;;25.67;;
3036;SDS011;1528;52.550;13.408;2022-10-30T07:08:28;27.53;;;25.73;;
3036;SDS011;1528;52.550;13.408;2022-10-30T07:11:14;25.70;;;23.60;;
3036;SDS011;1528;52.550;13.408;2022-10-30T07:14:00;25.67;;;23.97;;
3036;SDS011;1528;52.550;13.408;2022-10-30T07:16:45;24.77;;;22.97;;
3036;SDS011;1528;52.550;13.408;2022-10-30T07:19:32;25.40;;;23.47;;
3036;SDS011;1528;52.550;13.408;2022-10-30T07:22:17;23.40;;;21.70;;
3036;SDS011;1528;52.550;13.408;2022-10-30T07:25:03;24.90;;;23.10;;
3036;SDS011;1528;52.550;13.408;2022-10-30T07:27:49;25.13;;;23.17;;
3036;SDS011;1528;52.550;13.408;2022-10-30T07:30:36;24.80;;;22.93;;
3036;SDS011;1528;52.550;13.408;2022-10-30T07:33:22;24.63;;;22.63;;
3036;SDS011;1528;52.550;13.408;2022-10-30T07:36:08;25.43;;;23.37;;
3036;SDS011;1528;52.550;13.408;2022-10-30T07:38:55;25.07;;;23.30;;
3036;SDS011;1528;52.550;13.408;2022-10-30T07:41:40;25.57;;;23.73;;
3036;SDS011;1528;52.550;13.408;2022-10-30T07:44:26;25.13;;;23.23;;
3036;SDS011;1528;52.550;13.408;2022-10-30T07:47:11;24.80;;;23.00;;
3036;SDS011;1528;52.550;13.408;2022-10-30T07:49:57;25.90;;;23.97;;
3036;SDS011;1528;52.550;13.408;2022-10-30T07:52:44;22.57;;;20.77;;
3036;SDS011;1528;52.550;13.408;2022-10-30T07:55:29;22.27;;;20.67;;
3036;SDS011;1528;52.550;13.408;2022-10-30T07:58:15;21.40;;;19.70;;
3036;SDS011;1528;52.550;13.408;2022-10-30T08:01:00;23.70;;;22.00;;
3036;SDS011;1528;52.550;13.408;2022-10-30T08:03:46;26.23;;;24.23;;
3036;SDS011;1528;52.550;13.408;2022-10-30T08:06:31;31.40;;;29.03;;
3036;SDS011;1528;52.550;13.408;2022-10-30T08:09:18;24.87;;;23.07;;
3036;SDS011;1528;52.550;13.408;2022-10-30T08:12:04;21.33;;;19.50;;
3036;SDS011;1528;52.550;13.408;2022-10-30T08:14:51;21.90;;;20.30;;
3036;SDS011;1528;52.550;13.408;2022-10-30T08:17:40;23.60;;;21.60;;
3036;SDS011;1528;52.550;13.408;2022-10-30T08:20:26;24.23;;;22.13;;
3036;SDS011;1528;52.550;13.408;2022-10-30T08:23:11;21.60;;;20.10;;
3036;SDS011;1528;52.550;13.408;2022-10-30T08:25:58;24.33;;;22.07;;
3036;SDS011;1528;52.550;13.408;2022-10-30T08:28:43;21.23;;;19.43;;
3036;SDS011;1528;52.550;13.408;2022-10-30T08:31:29;20.80;;;18.90;;
3036;SDS011;1528;52.550;13.408;2022-10-30T08:34:15;21.20;;;19.37;;
3036;SDS011;1528;52.550;13.408;2022-10-30T08:37:00;22.50;;;20.43;;
3036;SDS011;1528;52.550;13.408;2022-10-30T08:39:46;21.20;;;19.50;;
3036;SDS011;1528;52.550;13.408;2022-10-30T08:42:33;22.63;;;21.10;;
3036;SDS011;1528;52.550;13.408;2022-10-30T08:45:19;23.73;;;22.07;;
3036;SDS011;1528;52.550;13.408;2022-10-30T08:48:05;24.50;;;22.80;;
3036;SDS011;1528;52.550;13.408;2022-10-30T08:50:56;28.70;;;26.70;;
3036;SDS011;1528;52.550;13.408;2022-10-30T08:53:41;25.63;;;23.83;;
3036;SDS011;1528;52.550;13.408;2022-10-30T08:56:27;25.47;;;23.80;;
3036;SDS011;1528;52.550;13.408;2022-10-30T08:59:14;23.90;;;22.00;;
3036;SDS011;1528;52.550;13.408;2022-10-30T09:01:59;25.70;;;23.90;;
3036;SDS011;1528;52.550;13.408;2022-10-30T09:04:45;29.87;;;27.97;;
3036;SDS011;1528;52.550;13.408;2022-10-30T09:07:30;25.73;;;23.80;;
3036;SDS011;1528;52.550;13.408;2022-10-30T09:10:16;28.43;;;26.60;;
3036;SDS011;1528;52.550;13.408;2022-10-30T09:13:02;26.63;;;24.70;;
3036;SDS011;1528;52.550;13.408;2022-10-30T09:15:49;22.07;;;20.47;;
3036;SDS011;1528;52.550;13.408;2022-10-30T09:18:34;22.67;;;20.90;;
3036;SDS011;1528;52.550;13.408;2022-10-30T09:21:20;23.27;;;21.47;;
3036;SDS011;1528;52.550;13.408;2022-10-30T09:24:05;22.97;;;21.50;;
3036;SDS011;1528;52.550;13.408;2022-10-30T09:26:51;22.53;;;21.00;;
3036;SDS011;1528;52.550;13.408;2022-10-30T09:29:38;28.50;;;26.60;;
3036;SDS011;1528;52.550;13.408;2022-10-30T09:32:25;25.83;;;24.00;;
3036;SDS011;1528;52.550;13.408;2022-10-30T09:35:11;22.87;;;21.20;;
3036;SDS011;1528;52.550;13.408;2022-10-30T09:37:57;22.23;;;20.53;;
3036;SDS011;1528;52.550;13.408;2022-10-30T09:40:47;26.23;;;24.73;;
3036;SDS011;1528;52.550;13.408;2022-10-30T09:43:48;32.20;;;30.00;;
3036;SDS011;1528;52.550;13.408;2022-10-30T09:46:49;26.27;;;24.60;;
3036;SDS011;1528;52.550;13.408;2022-10-30T09:49:48;27.90;;;26.27;;
3036;SDS011;1528;52.550;13.408;2022-10-30T09:52:48;26.50;;;24.60;;
3036;SDS011;1528;52.550;13.408;2022-10-30T09:55:43;22.93;;;21.23;;
3036;SDS011;1528;52.550;13.408;2022-10-30T09:58:32;22.53;;;21.13;;
3036;SDS011;1528;52.550;13.408;2022-10-30T10:01:29;24.43;;;23.00;;
3036;SDS011;1528;52.550;13.408;2022-10-30T10:04:22;20.20;;;18.60;;
3036;SDS011;1528;52.550;13.408;2022-10-30T10:07:15;16.47;;;15.07;;
3036;SDS011;1528;52.550;13.408;2022-10-30T10:10:05;18.50;;;16.97;;
3036;SDS011;1528;52.550;13.408;2022-10-30T10:12:55;18.90;;;16.97;;
3036;SDS011;1528;52.550;13.408;2022-10-30T10:15:43;16.63;;;15.33;;
3036;SDS011;1528;52.550;13.408;2022-10-30T10:18:34;20.63;;;19.17;;
3036;SDS011;1528;52.550;13.408;2022-10-30T10:21:24;19.27;;;17.83;;
3036;SDS011;1528;52.550;13.408;2022-10-30T10:24:13;19.03;;;17.70;;
3036;SDS011;1528;52.550;13.408;2022-10-30T10:27:03;23.77;;;22.10;;
3036;SDS011;1528;52.550;13.408;2022-10-30T10:30:02;23.03;;;21.63;;
3036;SDS011;1528;52.550;13.408;2022-10-30T10:36:05;23.47;;;21.97;;
3036;SDS011;1528;52.550;13.408;2022-10-30T10:39:03;17.07;;;15.40;;
3036;SDS011;1528;52.550;13.408;2022-10-30T10:42:02;18.00;;;16.60;;
3036;SDS011;1528;52.550;13.408;2022-10-30T10:45:01;20.43;;;18.93;;
3036;SDS011;1528;52.550;13.408;2022-10-30T10:48:06;18.23;;;17.07;;
3036;SDS011;1528;52.550;13.408;2022-10-30T10:51:12;18.53;;;17.17;;
3036;SDS011;1528;52.550;13.408;2022-10-30T10:54:02;17.53;;;16.33;;
3036;SDS011;1528;52.550;13.408;2022-10-30T10:56:52;18.20;;;16.73;;
3036;SDS011;1528;52.550;13.408;2022-10-30T10:59:42;18.87;;;17.47;;
3036;SDS011;1528;52.550;13.408;2022-10-30T11:02:33;17.63;;;16.40;;
3036;SDS011;1528;52.550;13.408;2022-10-30T11:05:24;16.97;;;15.80;;
3036;SDS011;1528;52.550;13.408;2022-10-30T11:08:16;18.53;;;17.03;;
3036;SDS011;1528;52.550;13.408;2022-10-30T11:11:04;17.90;;;16.20;;
3036;SDS011;1528;52.550;13.408;2022-10-30T11:13:50;16.70;;;15.50;;
3036;SDS011;1528;52.550;13.408;2022-10-30T11:16:38;18.70;;;17.00;;
3036;SDS011;1528;52.550;13.408;2022-10-30T11:19:36;18.10;;;16.77;;
3036;SDS011;1528;52.550;13.408;2022-10-30T11:22:23;16.80;;;15.80;;
3036;SDS011;1528;52.550;13.408;2022-10-30T11:25:17;19.17;;;17.37;;
3036;SDS011;1528;52.550;13.408;2022-10-30T11:28:04;18.33;;;16.83;;
3036;SDS011;1528;52.550;13.408;2022-10-30T11:30:49;18.67;;;17.40;;
3036;SDS011;1528;52.550;13.408;2022-10-30T11:33:36;19.93;;;18.57;;
3036;SDS011;1528;52.550;13.408;2022-10-30T11:36:22;24.43;;;23.33;;
3036;SDS011;1528;52.550;13.408;2022-10-30T11:39:09;21.13;;;19.40;;
3036;SDS011;1528;52.550;13.408;2022-10-30T11:42:02;19.30;;;18.27;;
3036;SDS011;1528;52.550;13.408;2022-10-30T11:44:49;21.77;;;20.33;;
3036;SDS011;1528;52.550;13.408;2022-10-30T11:47:36;22.13;;;20.23;;
3036;SDS011;1528;52.550;13.408;2022-10-30T11:50:24;23.83;;;22.23;;
3036;SDS011;1528;52.550;13.408;2022-10-30T11:53:12;21.87;;;20.30;;
3036;SDS011;1528;52.550;13.408;2022-10-30T11:56:09;15.60;;;14.50;;
3036;SDS011;1528;52.550;13.408;2022-10-30T11:58:59;21.03;;;19.60;;
3036;SDS011;1528;52.550;13.408;2022-10-30T12:01:56;17.40;;;16.30;;
3036;SDS011;1528;52.550;13.408;2022-10-30T12:04:44;18.73;;;17.10;;
3036;SDS011;1528;52.550;13.408;2022-10-30T12:07:31;19.33;;;17.80;;
3036;SDS011;1528;52.550;13.408;2022-10-30T12:10:22;20.77;;;18.97;;
3036;SDS011;1528;52.550;13.408;2022-10-30T12:13:10;19.83;;;18.43;;
3036;SDS011;1528;52.550;13.408;2022-10-30T12:16:05;21.33;;;19.87;;
3036;SDS011;1528;52.550;13.408;2022-10-30T12:18:55;19.50;;;18.47;;
3036;SDS011;1528;52.550;13.408;2022-10-30T12:21:44;22.27;;;20.50;;
3036;SDS011;1528;52.550;13.408;2022-10-30T12:24:34;20.93;;;19.47;;
3036;SDS011;1528;52.550;13.408;2022-10-30T12:27:21;25.17;;;23.63;;
3036;SDS011;1528;52.550;13.408;2022-10-30T12:30:09;17.03;;;15.97;;
3036;SDS011;1528;52.550;13.408;2022-10-30T12:33:02;18.50;;;17.30;;
3036;SDS011;1528;52.550;13.408;2022-10-30T12:35:51;20.10;;;18.70;;
3036;SDS011;1528;52.550;13.408;2022-10-30T12:38:41;16.57;;;15.07;;
3036;SDS011;1528;52.550;13.408;2022-10-30T12:41:31;17.53;;;16.10;;
3036;SDS011;1528;52.550;13.408;2022-10-30T12:44:24;21.60;;;19.83;;
3036;SDS011;1528;52.550;13.408;2022-10-30T12:47:13;16.23;;;14.97;;
3036;SDS011;1528;52.550;13.408;2022-10-30T12:50:05;16.33;;;14.63;;
3036;SDS011;1528;52.550;13.408;2022-10-30T12:53:04;19.10;;;17.70;;
3036;SDS011;1528;52.550;13.408;2022-10-30T12:55:54;18.20;;;16.50;;
3036;SDS011;1528;52.550;13.408;2022-10-30T12:58:45;16.60;;;15.03;;
3036;SDS011;1528;52.550;13.408;2022-10-30T13:01:35;17.00;;;15.50;;
3036;SDS011;1528;52.550;13.408;2022-10-30T13:04:27;19.67;;;18.23;;
3036;SDS011;1528;52.550;13.408;2022-10-30T13:07:21;19.27;;;17.77;;
3036;SDS011;1528;52.550;13.408;2022-10-30T13:10:19;20.37;;;18.63;;
3036;SDS011;1528;52.550;13.408;2022-10-30T13:13:10;16.63;;;14.63;;
3036;SDS011;1528;52.550;13.408;2022-10-30T13:16:01;17.83;;;16.02;;
3036;SDS011;1528;52.550;13.408;2022-10-30T13:18:50;18.30;;;16.90;;
3036;SDS011;1528;52.550;13.408;2022-10-30T13:21:41;16.83;;;15.37;;
3036;SDS011;1528;52.550;13.408;2022-10-30T13:24:35;15.50;;;14.30;;
3036;SDS011;1528;52.550;13.408;2022-10-30T13:27:33;17.20;;;15.90;;
3036;SDS011;1528;52.550;13.408;2022-10-30T13:30:26;15.53;;;14.40;;
3036;SDS011;1528;52.550;13.408;2022-10-30T13:33:20;17.60;;;15.30;;
3036;SDS011;1528;52.550;13.408;2022-10-30T13:36:13;18.30;;;17.10;;
3036;SDS011;1528;52.550;13.408;2022-10-30T13:39:07;21.80;;;20.40;;
3036;SDS011;1528;52.550;13.408;2022-10-30T13:42:12;19.23;;;17.93;;
3036;SDS011;1528;52.550;13.408;2022-10-30T13:45:19;18.37;;;16.63;;
3036;SDS011;1528;52.550;13.408;2022-10-30T13:48:17;15.70;;;14.50;;
3036;SDS011;1528;52.550;13.408;2022-10-30T13:51:21;18.97;;;17.33;;
3036;SDS011;1528;52.550;13.408;2022-10-30T13:54:17;18.67;;;16.77;;
3036;SDS011;1528;52.550;13.408;2022-10-30T13:57:07;17.97;;;16.47;;
3036;SDS011;1528;52.550;13.408;2022-10-30T13:59:59;16.67;;;15.40;;
3036;SDS011;1528;52.550;13.408;2022-10-30T14:06:04;17.17;;;15.63;;
3036;SDS011;1528;52.550;13.408;2022-10-30T14:09:00;17.53;;;16.33;;
3036;SDS011;1528;52.550;13.408;2022-10-30T14:11:54;15.77;;;14.57;;
3036;SDS011;1528;52.550;13.408;2022-10-30T14:14:43;14.30;;;13.00;;
3036;SDS011;1528;52.550;13.408;2022-10-30T14:17:30;14.17;;;13.17;;
3036;SDS011;1528;52.550;13.408;2022-10-30T14:20:25;14.63;;;13.63;;
3036;SDS011;1528;52.550;13.408;2022-10-30T14:23:13;16.70;;;15.10;;
3036;SDS011;1528;52.550;13.408;2022-10-30T14:26:13;17.97;;;13.90;;
3036;SDS011;1528;52.550;13.408;2022-10-30T14:32:33;13.60;;;12.40;;
3036;SDS011;1528;52.550;13.408;2022-10-30T14:38:54;14.63;;;13.23;;
3036;SDS011;1528;52.550;13.408;2022-10-30T14:41:47;13.90;;;12.60;;
3036;SDS011;1528;52.550;13.408;2022-10-30T14:44:49;13.33;;;12.03;;
3036;SDS011;1528;52.550;13.408;2022-10-30T14:47:52;13.03;;;11.90;;
3036;SDS011;1528;52.550;13.408;2022-10-30T14:50:46;13.23;;;12.13;;
3036;SDS011;1528;52.550;13.408;2022-10-30T14:53:44;16.87;;;14.90;;
3036;SDS011;1528;52.550;13.408;2022-10-30T14:56:43;15.30;;;13.97;;
3036;SDS011;1528;52.550;13.408;2022-10-30T14:59:31;14.67;;;13.40;;
3036;SDS011;1528;52.550;13.408;2022-10-30T15:02:20;15.17;;;14.07;;
3036;SDS011;1528;52.550;13.408;2022-10-30T15:05:20;14.73;;;13.37;;
3036;SDS011;1528;52.550;13.408;2022-10-30T15:08:40;15.83;;;14.60;;
3036;SDS011;1528;52.550;13.408;2022-10-30T15:11:38;15.93;;;14.53;;
3036;SDS011;1528;52.550;13.408;2022-10-30T15:14:39;17.50;;;15.80;;
3036;SDS011;1528;52.550;13.408;2022-10-30T15:17:28;18.50;;;16.93;;
3036;SDS011;1528;52.550;13.408;2022-10-30T15:20:17;16.93;;;15.73;;
3036;SDS011;1528;52.550;13.408;2022-10-30T15:23:06;18.80;;;17.30;;
3036;SDS011;1528;52.550;13.408;2022-10-30T15:25:55;20.20;;;18.47;;
3036;SDS011;1528;52.550;13.408;2022-10-30T15:28:43;20.40;;;18.70;;
3036;SDS011;1528;52.550;13.408;2022-10-30T15:31:33;16.60;;;15.20;;
3036;SDS011;1528;52.550;13.408;2022-10-30T15:34:19;17.43;;;16.13;;
3036;SDS011;1528;52.550;13.408;2022-10-30T15:37:09;18.17;;;16.80;;
3036;SDS011;1528;52.550;13.408;2022-10-30T15:43:05;17.40;;;16.17;;
3036;SDS011;1528;52.550;13.408;2022-10-30T15:45:56;18.40;;;16.80;;
3036;SDS011;1528;52.550;13.408;2022-10-30T15:48:44;16.50;;;14.77;;
3036;SDS011;1528;52.550;13.408;2022-10-30T15:51:31;16.20;;;14.90;;
3036;SDS011;1528;52.550;13.408;2022-10-30T15:54:19;16.10;;;14.90;;
3036;SDS011;1528;52.550;13.408;2022-10-30T15:57:10;16.77;;;15.57;;
3036;SDS011;1528;52.550;13.408;2022-10-30T16:00:01;17.90;;;16.60;;
3036;SDS011;1528;52.550;13.408;2022-10-30T16:02:59;19.60;;;17.83;;
3036;SDS011;1528;52.550;13.408;2022-10-30T16:05:45;16.43;;;15.20;;
3036;SDS011;1528;52.550;13.408;2022-10-30T16:08:30;18.43;;;16.97;;
3036;SDS011;1528;52.550;13.408;2022-10-30T16:11:16;19.43;;;17.73;;
3036;SDS011;1528;52.550;13.408;2022-10-30T16:14:05;18.80;;;17.20;;
3036;SDS011;1528;52.550;13.408;2022-10-30T16:16:53;18.87;;;17.00;;
3036;SDS011;1528;52.550;13.408;2022-10-30T16:19:45;16.93;;;15.73;;
3036;SDS011;1528;52.550;13.408;2022-10-30T16:22:35;17.70;;;16.27;;
3036;SDS011;1528;52.550;13.408;2022-10-30T16:25:23;18.10;;;16.90;;
3036;SDS011;1528;52.550;13.408;2022-10-30T16:28:23;18.60;;;16.83;;
3036;SDS011;1528;52.550;13.408;2022-10-30T16:31:11;16.37;;;15.27;;
3036;SDS011;1528;52.550;13.408;2022-10-30T16:33:58;19.20;;;17.60;;
3036;SDS011;1528;52.550;13.408;2022-10-30T16:36:47;19.10;;;17.50;;
3036;SDS011;1528;52.550;13.408;2022-10-30T16:39:34;20.77;;;19.27;;
3036;SDS011;1528;52.550;13.408;2022-10-30T16:42:22;18.43;;;17.03;;
3036;SDS011;1528;52.550;13.408;2022-10-30T16:48:31;18.43;;;16.93;;
3036;SDS011;1528;52.550;13.408;2022-10-30T16:51:18;18.30;;;16.80;;
3036;SDS011;1528;52.550;13.408;2022-10-30T16:54:11;20.30;;;18.30;;
3036;SDS011;1528;52.550;13.408;2022-10-30T16:57:08;17.03;;;15.67;;
3036;SDS011;1528;52.550;13.408;2022-10-30T16:59:59;19.47;;;17.73;;
3036;SDS011;1528;52.550;13.408;2022-10-30T17:02:46;20.50;;;19.10;;
3036;SDS011;1528;52.550;13.408;2022-10-30T17:05:33;18.67;;;17.17;;